createdAt,value
2022-08-25T00:01:18.538Z,101666.56
2022-08-25T00:06:25.087Z,101663.75
2022-08-25T00:11:33.671Z,101659.06
2022-08-25T00:16:39.532Z,101658.04
2022-08-25T00:21:46.436Z,101661.86
2022-08-25T00:26:55.206Z,101649.38
2022-08-25T00:32:01.451Z,101647.05
2022-08-25T00:37:09.548Z,101644.47
2022-08-25T00:42:16.148Z,101648.28
2022-08-25T00:47:22.047Z,101652.97
2022-08-25T00:52:36.719Z,101644.78
2022-08-25T00:57:51.394Z,101650.95
2022-08-25T01:02:58.183Z,101644.64
2022-08-25T01:08:06.660Z,101642.55
2022-08-25T01:13:24.009Z,101654.04
2022-08-25T01:18:30.298Z,101643.09
2022-08-25T01:23:35.905Z,101639.64
2022-08-25T01:28:44.320Z,101636.12
2022-08-25T01:33:49.830Z,101630.98
2022-08-25T01:38:55.367Z,101620.83
2022-08-25T01:44:01.451Z,101617.73
2022-08-25T01:49:07.531Z,101621.81
2022-08-25T01:54:13.110Z,101612.92
2022-08-25T01:59:23.838Z,101620.69
2022-08-25T02:04:32.938Z,101628.62
2022-08-25T02:09:39.506Z,101627.03
2022-08-25T02:14:45.281Z,101626.89
2022-08-25T02:19:50.839Z,101626.70
2022-08-25T02:24:56.302Z,101625.33
2022-08-25T02:30:01.866Z,101631.70
2022-08-25T02:35:09.203Z,101626.53
2022-08-25T02:40:15.395Z,101627.56
2022-08-25T02:45:21.019Z,101621.25
2022-08-25T02:50:26.791Z,101621.59
2022-08-25T02:55:34.495Z,101618.80
2022-08-25T03:00:39.956Z,101610.27
2022-08-25T03:05:45.528Z,101606.32
2022-08-25T03:10:52.034Z,101609.77
2022-08-25T03:15:57.582Z,101604.83
2022-08-25T03:21:03.521Z,101596.80
2022-08-25T03:26:28.225Z,101596.20
2022-08-25T03:31:35.911Z,101594.84
2022-08-25T03:36:41.582Z,101591.62
2022-08-25T03:41:47.962Z,101593.72
2022-08-25T03:46:54.120Z,101595.08
2022-08-25T03:51:59.713Z,101588.27
2022-08-25T03:57:06.573Z,101598.42
2022-08-25T04:02:12.243Z,101595.57
2022-08-25T04:07:18.093Z,101592.28
2022-08-25T04:12:24.315Z,101587.81
2022-08-25T04:17:30.131Z,101591.52
2022-08-25T04:22:36.862Z,101593.48
2022-08-25T04:27:43.661Z,101604.77
2022-08-25T04:32:50.234Z,101605.98
2022-08-25T04:37:55.817Z,101605.12
2022-08-25T04:43:01.359Z,101616.63
2022-08-25T04:48:07.341Z,101607.48
2022-08-25T04:53:13.530Z,101607.12
2022-08-25T04:58:19.095Z,101614.88
2022-08-25T05:03:24.644Z,101610.06
2022-08-25T05:08:31.218Z,101608.21
2022-08-25T05:13:37.469Z,101614.91
2022-08-25T05:18:43.836Z,101618.12
2022-08-25T05:23:49.975Z,101622.31
2022-08-25T05:28:56.667Z,101619.33
2022-08-25T05:34:03.776Z,101614.22
2022-08-25T05:39:10.388Z,101619.69
2022-08-25T05:44:20.808Z,101618.66
2022-08-25T05:49:24.768Z,101620.55
2022-08-25T05:54:31.863Z,101621.05
2022-08-25T05:59:37.730Z,101623.25
2022-08-25T06:04:44.299Z,101625.41
2022-08-25T06:09:50.267Z,101627.45
2022-08-25T06:14:55.962Z,101629.78
2022-08-25T06:20:03.165Z,101627.09
2022-08-25T06:25:10.408Z,101630.21
2022-08-25T06:30:22.456Z,101620.02
2022-08-25T06:35:25.699Z,101621.67
2022-08-25T06:40:31.248Z,101620.68
2022-08-25T06:45:38.141Z,101626.63
2022-08-25T06:50:44.799Z,101624.40
2022-08-25T06:55:58.076Z,101622.50
2022-08-25T07:01:19.615Z,101625.32
2022-08-25T07:06:22.561Z,101617.65
2022-08-25T07:11:28.607Z,101611.00
2022-08-25T07:16:34.655Z,101612.53
2022-08-25T07:21:42.300Z,101608.55
2022-08-25T07:26:50.181Z,101605.00
2022-08-25T07:31:56.148Z,101596.41
2022-08-25T07:37:03.795Z,101596.28
2022-08-25T07:42:12.006Z,101594.33
2022-08-25T07:47:18.009Z,101597.44
2022-08-25T07:52:25.317Z,101599.49
2022-08-25T07:57:31.519Z,101599.70
2022-08-25T08:02:39.060Z,101599.20
2022-08-25T08:07:45.282Z,101599.45
2022-08-25T08:12:51.012Z,101593.22
2022-08-25T08:17:57.059Z,101589.53
2022-08-25T08:23:04.608Z,101590.28
2022-08-25T08:28:13.554Z,101584.95
2022-08-25T08:33:22.945Z,101580.81
2022-08-25T08:38:29.217Z,101576.41
2022-08-25T08:43:35.457Z,101586.26
2022-08-25T08:48:52.742Z,101594.36
2022-08-25T08:54:04.242Z,101586.55
2022-08-25T08:59:14.106Z,101581.02
2022-08-25T09:04:25.453Z,101581.73
2022-08-25T09:09:36.298Z,101581.59
2022-08-25T09:15:00.133Z,101587.20
2022-08-25T09:20:18.248Z,101574.22
2022-08-25T09:25:54.329Z,101571.64
2022-08-25T09:31:06.140Z,101558.53
2022-08-25T09:36:11.915Z,101561.69
2022-08-25T09:41:23.208Z,101557.16
2022-08-25T09:46:30.858Z,101549.06
2022-08-25T09:51:43.196Z,101545.22
2022-08-25T09:56:51.565Z,101542.73
2022-08-25T10:01:59.913Z,101541.22
2022-08-25T10:07:22.067Z,101537.28
2022-08-25T10:12:36.638Z,101523.22
2022-08-25T10:17:43.945Z,101517.55
2022-08-25T10:22:50.750Z,101511.43
2022-08-25T10:28:37.278Z,101496.56
2022-08-25T10:33:55.339Z,101500.66
2022-08-25T10:39:04.085Z,101492.80
2022-08-25T10:44:55.807Z,101487.66
2022-08-25T10:50:21.026Z,101487.28
2022-08-25T10:55:32.323Z,101477.68
2022-08-25T11:00:40.972Z,101476.45
2022-08-25T11:06:05.940Z,101478.88
2022-08-25T11:11:36.170Z,101470.25
2022-08-25T11:16:48.424Z,101469.23
2022-08-25T11:21:56.364Z,101459.31
2022-08-25T11:27:04.088Z,101452.05
2022-08-25T11:32:10.055Z,101451.48
2022-08-25T11:37:21.753Z,101445.22
2022-08-25T11:42:36.531Z,101444.00
2022-08-25T11:47:53.783Z,101442.22
2022-08-25T11:53:04.989Z,101438.34
2022-08-25T11:58:42.797Z,101440.66
2022-08-25T12:03:51.167Z,101428.75
2022-08-25T12:09:04.403Z,101349.40
2022-08-25T12:14:18.700Z,101430.58
2022-08-25T12:19:39.779Z,101417.02
2022-08-25T12:25:06.513Z,101408.88
2022-08-25T12:30:31.669Z,101400.16
2022-08-25T12:36:00.671Z,101399.31
2022-08-25T12:41:12.482Z,101383.80
2022-08-25T12:46:27.937Z,101382.45
2022-08-25T12:51:48.625Z,101375.06
2022-08-25T12:57:05.089Z,101381.09
2022-08-25T13:02:51.703Z,101382.05
2022-08-25T13:08:15.224Z,101375.04
2022-08-25T13:13:45.815Z,101377.09
2022-08-25T13:18:51.866Z,101361.48
2022-08-25T13:24:01.655Z,101363.24
2022-08-25T13:29:19.128Z,101364.71
2022-08-25T13:34:35.052Z,101363.67
2022-08-25T13:39:55.830Z,101359.87
2022-08-25T13:44:51.991Z,101351.25
2022-08-25T13:49:57.636Z,101347.69
2022-08-25T13:55:04.769Z,101339.84
2022-08-25T14:00:12.388Z,101338.24
2022-08-25T14:05:20.123Z,101266.84
2022-08-25T14:10:45.467Z,101320.88
2022-08-25T14:15:51.233Z,101320.45
2022-08-25T14:20:58.722Z,101313.55
2022-08-25T14:26:04.215Z,101302.83
2022-08-25T14:31:17.614Z,101302.12
2022-08-25T14:36:25.369Z,101308.93
2022-08-25T14:41:31.954Z,101299.55
2022-08-25T14:46:40.394Z,101295.27
2022-08-25T14:51:49.275Z,101292.46
2022-08-25T14:56:56.129Z,101293.18
2022-08-25T15:02:01.907Z,101285.16
2022-08-25T15:07:09.409Z,101282.17
2022-08-25T15:12:26.018Z,101284.52
2022-08-25T15:17:22.415Z,101275.34
2022-08-25T15:22:28.664Z,101269.55
2022-08-25T15:27:34.468Z,101271.45
2022-08-25T15:32:40.005Z,101267.94
2022-08-25T15:37:47.515Z,101256.67
2022-08-25T15:42:53.099Z,101260.13
2022-08-25T15:47:58.840Z,101260.99
2022-08-25T15:53:10.496Z,101250.09
2022-08-25T15:58:13.223Z,101248.42
2022-08-25T16:03:18.814Z,101244.44
2022-08-25T16:08:25.009Z,101238.94
2022-08-25T16:13:30.837Z,101236.80
2022-08-25T16:18:37.453Z,101227.13
2022-08-25T16:23:44.139Z,101214.70
2022-08-25T16:28:50.108Z,101219.48
2022-08-25T16:33:58.188Z,101220.13
2022-08-25T16:39:02.789Z,101214.67
2022-08-25T16:44:11.131Z,101214.34
2022-08-25T16:49:17.011Z,101202.34
2022-08-25T16:54:40.803Z,101197.66
2022-08-25T16:59:46.751Z,101191.50
2022-08-25T17:04:52.325Z,101197.61
2022-08-25T17:09:59.720Z,101192.30
2022-08-25T17:15:06.245Z,101190.87
2022-08-25T17:20:11.886Z,101186.59
2022-08-25T17:25:17.740Z,101186.17
2022-08-25T17:30:24.049Z,101185.08
2022-08-25T17:35:31.236Z,101184.00
2022-08-25T17:40:37.774Z,101184.55
2022-08-25T17:45:43.383Z,101182.88
2022-08-25T17:50:49.775Z,101183.80
2022-08-25T17:56:04.753Z,101183.06
2022-08-25T18:01:22.662Z,101183.76
2022-08-25T18:06:31.121Z,101187.34
2022-08-25T18:11:36.798Z,101186.77
2022-08-25T18:16:42.620Z,101193.34
2022-08-25T18:21:48.367Z,101204.73
2022-08-25T18:26:53.908Z,101204.95
2022-08-25T18:32:00.558Z,101200.38
2022-08-25T18:37:08.339Z,101197.52
2022-08-25T18:42:15.722Z,101119.45
2022-08-25T18:47:21.797Z,101201.02
2022-08-25T18:52:28.536Z,101203.77
2022-08-25T18:57:39.997Z,101206.03
2022-08-25T19:02:52.995Z,101206.55
2022-08-25T19:08:00.238Z,101208.46
2022-08-25T19:13:08.175Z,101207.91
2022-08-25T19:18:15.162Z,101199.37
2022-08-25T19:23:22.053Z,101203.98
2022-08-25T19:28:27.816Z,101210.50
2022-08-25T19:33:44.053Z,101208.11
2022-08-25T19:38:44.335Z,101211.00
2022-08-25T19:43:55.458Z,101219.36
2022-08-25T19:49:01.588Z,101222.46
2022-08-25T19:54:10.216Z,101219.86
2022-08-25T19:59:17.731Z,101219.97
2022-08-25T20:04:24.163Z,101213.99
2022-08-25T20:09:38.975Z,101218.75
2022-08-25T20:14:37.864Z,101211.20
2022-08-25T20:19:43.643Z,101211.20
2022-08-25T20:24:51.080Z,101206.56
2022-08-25T20:29:58.405Z,101206.36
2022-08-25T20:35:06.408Z,101208.41
2022-08-25T20:40:16.854Z,101201.18
2022-08-25T20:45:23.876Z,101214.56
2022-08-25T20:50:29.474Z,101214.02
2022-08-25T20:55:39.205Z,101207.08
2022-08-25T21:00:46.998Z,101214.02
2022-08-25T21:05:54.012Z,101219.13
2022-08-25T21:10:59.874Z,101209.86
2022-08-25T21:16:06.397Z,101208.77
2022-08-25T21:21:15.290Z,101207.09
2022-08-25T21:26:27.549Z,101204.88
2022-08-25T21:31:34.004Z,101207.25
2022-08-25T21:36:40.219Z,101202.27
2022-08-25T21:41:46.263Z,101200.39
2022-08-25T21:46:54.093Z,101199.66
2022-08-25T21:52:00.919Z,101197.59
2022-08-25T21:57:07.773Z,101192.45
2022-08-25T22:02:19.180Z,101185.43
2022-08-25T22:07:24.786Z,101180.29
2022-08-25T22:12:30.497Z,101184.50
2022-08-25T22:17:36.545Z,101177.83
2022-08-25T22:22:42.036Z,101175.19
2022-08-25T22:27:48.040Z,101172.73
2022-08-25T22:32:55.421Z,101172.23
2022-08-25T22:38:01.499Z,101171.98
2022-08-25T22:43:10.810Z,101166.69
2022-08-25T22:48:16.013Z,101168.20
2022-08-25T22:53:21.888Z,101159.23
2022-08-25T22:58:29.595Z,101166.75
2022-08-25T23:03:35.256Z,101165.34
2022-08-25T23:08:41.959Z,101164.64
2022-08-25T23:13:48.107Z,101157.47
2022-08-25T23:18:54.105Z,101150.61
2022-08-25T23:24:00.285Z,101150.41
2022-08-25T23:29:07.799Z,101145.81
2022-08-25T23:34:13.782Z,101141.02
2022-08-25T23:39:19.357Z,101141.92
2022-08-25T23:44:28.131Z,101128.13
2022-08-25T23:49:35.491Z,101124.39
2022-08-25T23:54:41.148Z,101126.27
2022-08-25T23:59:46.821Z,101114.30
